createdAt,value
2023-02-27T00:00:14.905Z,7.92
2023-02-27T00:02:46.913Z,7.93
2023-02-27T00:05:14.335Z,7.89
2023-02-27T00:07:41.560Z,7.60
2023-02-27T00:10:09.661Z,7.55
2023-02-27T00:12:37.024Z,7.32
2023-02-27T00:15:09.861Z,7.08
2023-02-27T00:17:37.076Z,7.15
2023-02-27T00:20:08.540Z,7.34
2023-02-27T00:22:35.328Z,7.48
2023-02-27T00:25:02.360Z,7.47
2023-02-27T00:27:29.200Z,7.46
2023-02-27T00:29:55.981Z,7.57
2023-02-27T00:32:22.947Z,7.58
2023-02-27T00:34:49.913Z,7.71
2023-02-27T00:37:16.973Z,7.69
2023-02-27T00:39:43.924Z,7.65
2023-02-27T00:42:10.735Z,7.66
2023-02-27T00:44:37.478Z,7.65
2023-02-27T00:47:04.419Z,7.26
2023-02-27T00:49:31.238Z,7.33
2023-02-27T00:51:58.133Z,7.48
2023-02-27T00:54:25.384Z,6.79
2023-02-27T00:56:52.261Z,6.83
2023-02-27T00:59:19.133Z,7.07
2023-02-27T01:01:46.131Z,7.21
2023-02-27T01:04:13.016Z,7.23
2023-02-27T01:06:39.925Z,7.18
2023-02-27T01:09:07.498Z,7.15
2023-02-27T01:11:34.312Z,7.26
2023-02-27T01:14:01.354Z,7.27
2023-02-27T01:16:28.863Z,6.91
2023-02-27T01:18:55.747Z,6.94
2023-02-27T01:21:23.090Z,7.07
2023-02-27T01:23:50.321Z,7.23
2023-02-27T01:26:17.194Z,6.96
2023-02-27T01:28:44.047Z,6.70
2023-02-27T01:31:10.961Z,6.50
2023-02-27T01:33:37.854Z,6.41
2023-02-27T01:36:05.287Z,6.26
2023-02-27T01:38:32.134Z,6.10
2023-02-27T01:40:58.978Z,5.92
2023-02-27T01:43:25.749Z,5.91
2023-02-27T01:45:52.805Z,6.18
2023-02-27T01:48:35.555Z,6.44
2023-02-27T01:51:09.189Z,6.47
2023-02-27T01:53:38.575Z,6.34
2023-02-27T01:56:15.064Z,6.22
2023-02-27T01:58:43.472Z,6.38
2023-02-27T02:01:10.460Z,6.19
2023-02-27T02:03:40.200Z,6.05
2023-02-27T02:06:08.094Z,6.23
2023-02-27T02:08:39.807Z,6.31
2023-02-27T02:11:08.335Z,6.46
2023-02-27T02:13:36.058Z,6.59
2023-02-27T02:16:18.741Z,6.72
2023-02-27T02:19:00.454Z,6.45
2023-02-27T02:21:33.044Z,6.23
2023-02-27T02:24:35.194Z,6.37
2023-02-27T02:27:12.542Z,6.33
2023-02-27T02:30:10.185Z,6.53
2023-02-27T02:33:14.803Z,6.53
2023-02-27T02:36:03.492Z,6.52
2023-02-27T02:39:15.552Z,6.35
2023-02-27T02:42:05.353Z,6.15
2023-02-27T02:44:53.317Z,5.85
2023-02-27T02:47:23.001Z,5.51
2023-02-27T02:50:01.593Z,5.22
2023-02-27T02:52:54.273Z,5.34
2023-02-27T02:55:25.045Z,5.04
2023-02-27T02:57:59.154Z,5.10
2023-02-27T03:00:32.914Z,4.98
2023-02-27T03:03:12.848Z,4.91
2023-02-27T03:05:47.882Z,4.88
2023-02-27T03:08:20.990Z,5.02
2023-02-27T03:11:04.612Z,4.46
2023-02-27T03:13:35.882Z,4.98
2023-02-27T03:16:10.987Z,4.97
2023-02-27T03:18:43.170Z,4.99
2023-02-27T03:21:22.178Z,5.20
2023-02-27T03:23:53.554Z,5.34
2023-02-27T03:26:25.120Z,5.43
2023-02-27T03:29:14.879Z,5.53
2023-02-27T03:31:58.932Z,5.67
2023-02-27T03:34:31.842Z,5.81
2023-02-27T03:37:04.521Z,5.95
2023-02-27T03:39:48.128Z,6.03
2023-02-27T03:42:20.645Z,5.97
2023-02-27T03:45:06.524Z,5.84
2023-02-27T03:47:34.592Z,5.46
2023-02-27T03:50:01.692Z,5.57
2023-02-27T03:52:29.588Z,5.04
2023-02-27T03:55:10.123Z,5.29
2023-02-27T03:57:37.755Z,4.93
2023-02-27T04:00:06.607Z,5.07
2023-02-27T04:02:34.095Z,5.29
2023-02-27T04:05:00.917Z,5.48
2023-02-27T04:07:46.344Z,5.56
2023-02-27T04:11:04.255Z,4.17
2023-02-27T04:13:44.993Z,4.13
2023-02-27T04:16:42.232Z,4.53
2023-02-27T04:19:37.126Z,4.75
2023-02-27T04:22:30.423Z,4.90
2023-02-27T04:25:48.886Z,4.48
2023-02-27T04:28:25.235Z,4.70
2023-02-27T04:31:20.182Z,4.71
2023-02-27T04:33:51.044Z,4.91
2023-02-27T04:36:41.994Z,5.08
2023-02-27T04:39:20.630Z,5.10
2023-02-27T04:41:52.758Z,4.70
2023-02-27T04:44:22.910Z,4.85
2023-02-27T04:46:52.733Z,4.95
2023-02-27T04:49:35.203Z,5.12
2023-02-27T04:52:10.501Z,5.33
2023-02-27T04:54:52.281Z,5.62
2023-02-27T04:57:44.864Z,5.71
2023-02-27T05:00:15.034Z,5.75
2023-02-27T05:02:47.829Z,5.95
2023-02-27T05:05:25.186Z,5.93
2023-02-27T05:07:58.111Z,5.59
2023-02-27T05:10:40.229Z,5.35
2023-02-27T05:13:14.952Z,5.19
2023-02-27T05:15:50.792Z,5.33
2023-02-27T05:18:20.840Z,5.40
2023-02-27T05:21:25.018Z,5.53
2023-02-27T05:24:36.389Z,5.60
2023-02-27T05:27:09.383Z,5.35
2023-02-27T05:29:59.442Z,5.60
2023-02-27T05:32:35.139Z,5.95
2023-02-27T05:35:09.129Z,5.66
2023-02-27T05:37:45.714Z,5.50
2023-02-27T05:40:19.468Z,5.01
2023-02-27T05:42:57.155Z,4.91
2023-02-27T05:45:29.495Z,4.95
2023-02-27T05:48:02.581Z,4.87
2023-02-27T05:50:32.872Z,5.16
2023-02-27T05:53:04.821Z,5.35
2023-02-27T05:55:53.271Z,5.56
2023-02-27T05:58:29.576Z,5.53
2023-02-27T06:01:02.228Z,5.53
2023-02-27T06:03:31.903Z,5.78
2023-02-27T06:06:02.215Z,5.74
2023-02-27T06:08:29.494Z,5.08
2023-02-27T06:10:58.509Z,4.80
2023-02-27T06:13:37.407Z,4.85
2023-02-27T06:16:11.399Z,4.91
2023-02-27T06:18:38.534Z,5.09
2023-02-27T06:21:11.720Z,5.40
2023-02-27T06:23:52.968Z,5.23
2023-02-27T06:26:27.363Z,4.70
2023-02-27T06:28:57.579Z,4.69
2023-02-27T06:31:24.528Z,4.82
2023-02-27T06:33:58.440Z,4.94
2023-02-27T06:36:33.913Z,5.12
2023-02-27T06:39:02.122Z,5.36
2023-02-27T06:41:45.192Z,5.56
2023-02-27T06:44:12.203Z,5.72
2023-02-27T06:46:53.118Z,5.80
2023-02-27T06:49:30.287Z,5.64
2023-02-27T06:52:00.015Z,5.71
2023-02-27T06:54:40.875Z,5.91
2023-02-27T06:57:14.399Z,5.98
2023-02-27T06:59:47.596Z,5.97
2023-02-27T07:02:25.876Z,5.73
2023-02-27T07:04:55.437Z,5.68
2023-02-27T07:07:43.427Z,5.67
2023-02-27T07:10:14.376Z,5.76
2023-02-27T07:12:57.659Z,5.87
2023-02-27T07:15:30.161Z,5.76
2023-02-27T07:18:04.580Z,5.83
2023-02-27T07:20:40.907Z,5.84
2023-02-27T07:23:21.090Z,5.96
2023-02-27T07:26:05.443Z,6.11
2023-02-27T07:28:45.445Z,6.11
2023-02-27T07:31:26.241Z,6.15
2023-02-27T07:34:09.636Z,6.30
2023-02-27T07:39:42.264Z,6.94
2023-02-27T07:42:12.272Z,7.01
2023-02-27T07:44:51.458Z,7.20
2023-02-27T07:47:36.509Z,7.50
2023-02-27T07:52:53.108Z,7.32
2023-02-27T07:55:45.171Z,7.26
2023-02-27T07:58:25.991Z,7.28
2023-02-27T08:03:47.522Z,7.35
2023-02-27T08:06:22.070Z,7.46
2023-02-27T08:08:53.787Z,7.61
2023-02-27T08:11:25.895Z,7.38
2023-02-27T08:14:01.485Z,7.37
2023-02-27T08:16:34.885Z,7.66
2023-02-27T08:19:11.051Z,7.75
2023-02-27T08:21:42.986Z,7.55
2023-02-27T08:24:12.018Z,7.52
2023-02-27T08:26:45.956Z,7.52
2023-02-27T08:29:22.052Z,7.58
2023-02-27T08:31:55.980Z,7.79
2023-02-27T08:34:27.632Z,8.16
2023-02-27T08:37:00.007Z,8.39
2023-02-27T08:39:43.018Z,8.55
2023-02-27T08:42:09.978Z,8.62
2023-02-27T08:44:36.892Z,8.64
2023-02-27T08:47:04.035Z,8.85
2023-02-27T08:49:30.891Z,9.07
2023-02-27T08:51:57.813Z,9.47
2023-02-27T08:54:24.894Z,10.01
2023-02-27T08:56:51.753Z,10.33
2023-02-27T08:59:18.609Z,10.67
2023-02-27T09:01:45.411Z,10.86
2023-02-27T09:04:12.299Z,10.82
2023-02-27T09:06:39.405Z,11.20
2023-02-27T09:09:07.103Z,11.11
2023-02-27T09:11:33.961Z,10.73
2023-02-27T09:14:01.283Z,10.65
2023-02-27T09:16:28.530Z,10.53
2023-02-27T09:18:55.609Z,10.37
2023-02-27T09:21:22.775Z,10.67
2023-02-27T09:23:49.723Z,10.95
2023-02-27T09:26:16.597Z,11.12
2023-02-27T09:28:43.805Z,11.52
2023-02-27T09:31:11.308Z,11.82
2023-02-27T09:33:38.953Z,11.54
2023-02-27T09:36:06.834Z,11.56
2023-02-27T09:38:35.440Z,12.16
2023-02-27T09:41:03.159Z,12.06
2023-02-27T09:43:43.342Z,12.58
2023-02-27T09:46:18.173Z,12.62
2023-02-27T09:48:53.514Z,12.43
2023-02-27T09:51:21.774Z,12.19
2023-02-27T09:53:54.312Z,12.14
2023-02-27T09:56:35.890Z,12.12
2023-02-27T09:59:44.411Z,12.25
2023-02-27T10:02:44.419Z,12.18
2023-02-27T10:05:31.404Z,12.17
2023-02-27T10:08:15.038Z,12.14
2023-02-27T10:10:56.363Z,12.18
2023-02-27T10:13:33.782Z,12.39
2023-02-27T10:16:03.637Z,12.42
2023-02-27T10:18:44.731Z,12.79
2023-02-27T10:21:16.441Z,12.88
2023-02-27T10:23:55.239Z,12.95
2023-02-27T10:26:37.604Z,12.89
2023-02-27T10:29:29.607Z,12.82
2023-02-27T10:32:17.994Z,13.06
2023-02-27T10:35:10.904Z,13.29
2023-02-27T10:37:45.502Z,13.17
2023-02-27T10:40:15.453Z,13.02
2023-02-27T10:42:43.300Z,12.90
2023-02-27T10:45:14.838Z,12.52
2023-02-27T10:47:42.331Z,12.63
2023-02-27T10:50:33.524Z,12.77
2023-02-27T10:53:03.461Z,12.75
2023-02-27T10:55:34.813Z,12.82
2023-02-27T10:58:03.476Z,12.96
2023-02-27T11:00:41.526Z,13.08
2023-02-27T11:03:19.788Z,13.37
2023-02-27T11:05:57.494Z,13.54
2023-02-27T11:08:29.908Z,13.50
2023-02-27T11:11:04.119Z,13.34
2023-02-27T11:13:33.646Z,13.27
2023-02-27T11:16:08.590Z,13.26
2023-02-27T11:18:37.526Z,13.15
2023-02-27T11:21:13.149Z,13.29
2023-02-27T11:23:56.860Z,13.37
2023-02-27T11:26:39.404Z,13.51
2023-02-27T11:29:17.791Z,13.68
2023-02-27T11:31:54.297Z,13.91
2023-02-27T11:34:38.951Z,13.64
2023-02-27T11:37:26.270Z,13.89
2023-02-27T11:40:03.339Z,13.96
2023-02-27T11:42:34.163Z,13.91
2023-02-27T11:46:04.732Z,13.97
2023-02-27T11:48:28.771Z,14.12
2023-02-27T11:50:58.411Z,14.14
2023-02-27T11:53:25.171Z,14.12
2023-02-27T11:55:56.265Z,14.23
2023-02-27T11:58:26.221Z,14.39
2023-02-27T12:01:01.656Z,14.59
2023-02-27T12:03:28.442Z,15.07
2023-02-27T12:06:00.771Z,15.27
2023-02-27T12:09:11.736Z,15.36
2023-02-27T12:11:44.388Z,15.19
2023-02-27T12:14:25.533Z,14.72
2023-02-27T12:17:38.735Z,14.62
2023-02-27T12:20:29.573Z,14.52
2023-02-27T12:22:56.459Z,14.46
2023-02-27T12:25:44.954Z,14.53
2023-02-27T12:28:26.787Z,14.78
2023-02-27T12:31:27.529Z,15.01
2023-02-27T12:34:04.784Z,14.84
2023-02-27T12:36:31.833Z,14.87
2023-02-27T12:38:58.706Z,14.77
2023-02-27T12:41:43.433Z,14.82
2023-02-27T12:44:22.274Z,14.68
2023-02-27T12:47:18.371Z,14.59
2023-02-27T12:49:53.216Z,14.52
2023-02-27T12:52:26.010Z,14.51
2023-02-27T12:55:00.788Z,14.98
2023-02-27T12:57:48.784Z,15.02
2023-02-27T13:01:02.042Z,14.86
2023-02-27T13:03:33.266Z,14.52
2023-02-27T13:06:18.209Z,14.36
2023-02-27T13:09:14.895Z,14.63
2023-02-27T13:12:05.672Z,15.03
2023-02-27T13:14:56.289Z,15.18
2023-02-27T13:17:45.902Z,15.28
2023-02-27T13:20:21.421Z,15.26
2023-02-27T13:22:52.420Z,15.03
2023-02-27T13:25:20.669Z,15.12
2023-02-27T13:27:52.361Z,15.20
2023-02-27T13:30:28.349Z,15.19
2023-02-27T13:33:01.007Z,15.21
2023-02-27T13:36:03.047Z,15.17
2023-02-27T13:38:46.618Z,14.98
2023-02-27T13:41:25.799Z,14.94
2023-02-27T13:44:21.370Z,14.94
2023-02-27T13:46:48.416Z,14.82
2023-02-27T13:49:29.244Z,14.66
2023-02-27T13:52:05.017Z,14.61
2023-02-27T13:54:34.452Z,14.57
2023-02-27T13:57:25.688Z,14.62
2023-02-27T13:59:58.138Z,14.75
2023-02-27T14:02:25.186Z,14.79
2023-02-27T14:04:55.425Z,14.74
2023-02-27T14:07:25.585Z,14.59
2023-02-27T14:10:06.266Z,14.60
2023-02-27T14:12:45.713Z,14.56
2023-02-27T14:15:25.298Z,14.44
2023-02-27T14:18:09.680Z,14.29
2023-02-27T14:20:40.986Z,14.18
2023-02-27T14:23:27.249Z,14.18
2023-02-27T14:26:02.252Z,14.18
2023-02-27T14:28:48.460Z,14.12
2023-02-27T14:31:28.379Z,13.98
2023-02-27T14:34:00.020Z,13.94
2023-02-27T14:36:31.569Z,13.89
2023-02-27T14:39:00.852Z,13.85
2023-02-27T14:41:36.268Z,13.78
2023-02-27T14:44:04.285Z,13.74
2023-02-27T14:46:38.499Z,13.65
2023-02-27T14:49:25.375Z,13.61
2023-02-27T14:51:52.310Z,13.53
2023-02-27T14:54:26.960Z,13.37
2023-02-27T14:57:00.654Z,13.28
2023-02-27T14:59:42.824Z,13.27
2023-02-27T15:02:16.321Z,13.18
2023-02-27T15:04:43.256Z,13.07
2023-02-27T15:07:21.616Z,13.06
2023-02-27T15:09:53.963Z,12.94
2023-02-27T15:12:22.637Z,12.87
2023-02-27T15:14:56.851Z,12.85
2023-02-27T15:17:29.068Z,12.87
2023-02-27T15:19:58.249Z,12.79
2023-02-27T15:22:38.017Z,12.82
2023-02-27T15:25:06.087Z,12.79
2023-02-27T15:27:34.887Z,12.78
2023-02-27T15:30:02.682Z,12.72
2023-02-27T15:32:33.670Z,12.68
2023-02-27T15:35:16.254Z,12.67
2023-02-27T15:37:49.652Z,12.63
2023-02-27T15:40:21.354Z,12.60
2023-02-27T15:42:49.007Z,12.55
2023-02-27T15:45:20.554Z,12.55
2023-02-27T15:47:48.427Z,12.53
2023-02-27T15:50:18.221Z,12.53
2023-02-27T15:53:19.292Z,12.48
2023-02-27T15:56:08.247Z,12.47
2023-02-27T15:58:43.423Z,12.43
2023-02-27T16:01:20.142Z,12.38
2023-02-27T16:03:50.296Z,12.29
2023-02-27T16:06:39.270Z,12.32
2023-02-27T16:09:19.634Z,12.46
2023-02-27T16:11:46.566Z,12.75
2023-02-27T16:14:42.951Z,12.54
2023-02-27T16:17:29.839Z,12.54
2023-02-27T16:20:01.313Z,12.57
2023-02-27T16:22:28.642Z,12.56
2023-02-27T16:25:10.824Z,12.54
2023-02-27T16:27:39.401Z,12.54
2023-02-27T16:30:11.592Z,12.50
2023-02-27T16:32:42.651Z,12.45
2023-02-27T16:35:22.606Z,12.36
2023-02-27T16:37:50.128Z,12.27
2023-02-27T16:40:23.089Z,12.13
2023-02-27T16:42:51.207Z,11.94
2023-02-27T16:45:25.436Z,11.81
2023-02-27T16:47:58.153Z,11.54
2023-02-27T16:50:33.832Z,11.49
2023-02-27T16:53:00.907Z,11.41
2023-02-27T16:55:28.291Z,11.32
2023-02-27T16:57:55.212Z,11.24
2023-02-27T17:00:22.237Z,11.16
2023-02-27T17:02:50.196Z,11.04
2023-02-27T17:05:18.051Z,11.08
2023-02-27T17:07:46.068Z,10.93
2023-02-27T17:10:19.800Z,11.00
2023-02-27T17:12:48.497Z,11.01
2023-02-27T17:15:16.517Z,11.14
2023-02-27T17:17:43.791Z,11.17
2023-02-27T17:20:14.910Z,11.21
2023-02-27T17:22:45.314Z,11.28
2023-02-27T17:25:13.874Z,11.22
2023-02-27T17:27:43.909Z,11.22
2023-02-27T17:30:12.001Z,11.12
2023-02-27T17:32:39.141Z,11.05
2023-02-27T17:35:06.469Z,10.97
2023-02-27T17:37:33.471Z,11.13
2023-02-27T17:40:00.401Z,11.13
2023-02-27T17:42:27.748Z,11.15
2023-02-27T17:44:54.682Z,11.24
2023-02-27T17:47:22.566Z,11.30
2023-02-27T17:49:49.784Z,11.35
2023-02-27T17:52:17.457Z,11.41
2023-02-27T17:54:44.246Z,11.42
2023-02-27T17:57:11.138Z,11.39
2023-02-27T17:59:38.098Z,11.36
2023-02-27T18:02:05.266Z,11.38
2023-02-27T18:04:32.322Z,11.21
2023-02-27T18:07:00.215Z,10.96
2023-02-27T18:09:27.392Z,11.08
2023-02-27T18:11:55.212Z,11.03
2023-02-27T18:14:22.409Z,11.01
2023-02-27T18:16:49.184Z,10.96
2023-02-27T18:19:16.961Z,11.00
2023-02-27T18:21:44.339Z,11.01
2023-02-27T18:24:11.119Z,10.97
2023-02-27T18:26:38.672Z,11.07
2023-02-27T18:29:10.026Z,11.16
2023-02-27T18:31:38.838Z,11.22
2023-02-27T18:34:06.494Z,11.23
2023-02-27T18:36:34.072Z,11.17
2023-02-27T18:39:01.143Z,11.16
2023-02-27T18:41:28.698Z,11.20
2023-02-27T18:43:55.768Z,11.23
2023-02-27T18:46:22.746Z,11.23
2023-02-27T18:48:49.735Z,11.26
2023-02-27T18:51:18.441Z,11.22
2023-02-27T18:53:48.866Z,11.16
2023-02-27T18:56:19.746Z,11.14
2023-02-27T18:58:46.808Z,11.18
2023-02-27T19:01:23.564Z,11.23
2023-02-27T19:03:54.156Z,11.29
2023-02-27T19:06:21.031Z,11.29
2023-02-27T19:08:48.131Z,11.30
2023-02-27T19:11:26.241Z,11.29
2023-02-27T19:13:54.217Z,11.31
2023-02-27T19:16:21.345Z,11.30
2023-02-27T19:18:48.287Z,11.28
2023-02-27T19:21:15.146Z,11.21
2023-02-27T19:23:42.164Z,11.16
2023-02-27T19:26:09.331Z,11.18
2023-02-27T19:28:36.294Z,11.14
2023-02-27T19:31:11.308Z,11.21
2023-02-27T19:33:38.342Z,11.23
2023-02-27T19:36:16.574Z,11.25
2023-02-27T19:38:44.864Z,11.15
2023-02-27T19:41:14.770Z,11.14
2023-02-27T19:43:41.986Z,11.16
2023-02-27T19:46:11.622Z,11.16
2023-02-27T19:48:39.090Z,11.19
2023-02-27T19:51:08.896Z,11.13
2023-02-27T19:53:37.796Z,11.11
2023-02-27T19:56:08.154Z,11.07
2023-02-27T19:58:36.017Z,11.11
2023-02-27T20:01:04.798Z,11.07
2023-02-27T20:03:32.396Z,11.04
2023-02-27T20:06:00.425Z,11.06
2023-02-27T20:08:27.701Z,11.01
2023-02-27T20:11:01.743Z,10.96
2023-02-27T20:13:29.301Z,10.93
2023-02-27T20:15:58.289Z,10.83
2023-02-27T20:18:25.432Z,10.79
2023-02-27T20:21:07.921Z,10.67
2023-02-27T20:23:37.488Z,10.64
2023-02-27T20:26:22.850Z,10.66
2023-02-27T20:28:52.576Z,10.63
2023-02-27T20:31:21.656Z,10.63
2023-02-27T20:33:49.227Z,10.62
2023-02-27T20:36:16.944Z,10.64
2023-02-27T20:38:44.352Z,10.63
2023-02-27T20:41:16.858Z,10.40
2023-02-27T20:43:44.077Z,10.50
2023-02-27T20:46:17.818Z,10.42
2023-02-27T20:48:44.824Z,10.49
2023-02-27T20:51:17.726Z,10.47
2023-02-27T20:53:46.309Z,10.48
2023-02-27T20:56:14.161Z,10.37
2023-02-27T20:58:41.565Z,10.32
2023-02-27T21:01:12.908Z,10.41
2023-02-27T21:03:41.179Z,10.49
2023-02-27T21:06:14.122Z,10.51
2023-02-27T21:08:46.678Z,10.56
2023-02-27T21:11:22.771Z,10.57
2023-02-27T21:13:49.521Z,10.50
2023-02-27T21:16:18.690Z,10.49
2023-02-27T21:18:45.973Z,10.40
2023-02-27T21:21:17.915Z,10.30
2023-02-27T21:23:45.071Z,10.29
2023-02-27T21:26:19.250Z,10.33
2023-02-27T21:29:04.381Z,10.17
2023-02-27T21:31:33.405Z,10.29
2023-02-27T21:34:02.765Z,10.33
2023-02-27T21:36:33.806Z,10.35
2023-02-27T21:39:03.753Z,10.36
2023-02-27T21:41:30.972Z,10.39
2023-02-27T21:44:02.713Z,10.40
2023-02-27T21:46:29.932Z,10.36
2023-02-27T21:48:57.436Z,10.44
2023-02-27T21:51:38.757Z,10.45
2023-02-27T21:54:07.303Z,10.33
2023-02-27T21:56:34.196Z,9.92
2023-02-27T21:59:02.129Z,10.05
2023-02-27T22:01:30.115Z,10.10
2023-02-27T22:03:57.845Z,10.06
2023-02-27T22:06:27.145Z,10.04
2023-02-27T22:08:55.981Z,10.09
2023-02-27T22:11:24.147Z,10.16
2023-02-27T22:13:51.180Z,10.16
2023-02-27T22:16:18.916Z,10.07
2023-02-27T22:18:46.151Z,10.10
2023-02-27T22:21:17.039Z,10.03
2023-02-27T22:23:45.280Z,10.11
2023-02-27T22:26:15.623Z,10.11
2023-02-27T22:28:42.707Z,10.07
2023-02-27T22:31:21.089Z,10.07
2023-02-27T22:33:50.145Z,10.05
2023-02-27T22:36:24.830Z,10.05
2023-02-27T22:38:52.353Z,10.07
2023-02-27T22:41:24.954Z,10.08
2023-02-27T22:43:52.067Z,10.09
2023-02-27T22:46:39.743Z,10.07
2023-02-27T22:49:10.676Z,10.02
2023-02-27T22:51:37.749Z,9.96
2023-02-27T22:54:06.875Z,9.92
2023-02-27T22:56:34.510Z,9.91
2023-02-27T22:59:01.383Z,9.77
2023-02-27T23:01:31.819Z,9.57
2023-02-27T23:04:01.594Z,9.65
2023-02-27T23:06:31.319Z,9.63
2023-02-27T23:08:58.588Z,9.46
2023-02-27T23:11:25.560Z,9.61
2023-02-27T23:13:52.918Z,9.64
2023-02-27T23:16:22.151Z,9.59
2023-02-27T23:18:52.072Z,9.57
2023-02-27T23:21:22.957Z,9.65
2023-02-27T23:23:50.695Z,9.71
2023-02-27T23:26:17.516Z,9.69
2023-02-27T23:28:44.308Z,9.74
2023-02-27T23:31:11.190Z,9.77
2023-02-27T23:33:38.212Z,9.76
2023-02-27T23:36:05.311Z,9.61
2023-02-27T23:38:32.628Z,9.44
2023-02-27T23:41:06.453Z,9.59
2023-02-27T23:43:33.718Z,9.54
2023-02-27T23:46:09.341Z,9.64
2023-02-27T23:48:36.583Z,9.59
2023-02-27T23:51:06.073Z,9.54
2023-02-27T23:53:34.006Z,9.39
2023-02-27T23:56:01.010Z,9.33
2023-02-27T23:58:27.846Z,9.33
